Portada
METAR-TAF:

METAR-TAF

Aeropuertos :

Aeropuerto de Rodez-Aveyron

Rodez, Francia

latitud: 44-24N, longitud: 002-29E, altitud: 581 m

Observación

El informe se hizo hace 24 minutos, a las 18:00 UTC
Viento 13 kt del oeste-noroeste
Temperatura
Presión 1025 hPa
Visibilidad 10 km o más
Cielo nuboso a una altura de 4500 ft

METAR: LFCR 261800Z AUTO 29013KT 9999 BKN045 ///// Q1025 NOSIG

Hora: 20:24 (18:24 UTC)

Pronóstico

El informe se hizo hace 1 hora y 24 minutos, a las 17:00 UTC
Pronóstico válido del 26 a las 18 UTC al 27 a las 18 UTC
Viento 14 kt del oeste-noroeste
Visibilidad 10 km o más
sin nubes por debajo de 1500 m y sin presencia de cumulonimbus.

TAF: LFCR 261700Z 2618/2718 29014KT CAVOK

Observaciones y pronósticos meteorológicos de más de 4000 aeropuertos (mensajes METAR y TAF).

Los puntos amarillos y rojos representan las estaciones disponibles.

Ponga el ratón en el punto deseado para ver el nombre de la estación.

Haga clic para ver las observaciones y los pronósticos meteorológicos.

Para cambiar el mapa : haga clic en los botones verdes con una cruz de color negro para hacer un zoom, en el botón verde con un guión para alejar o en las flechas verdes para mapas adyacentes.


METAR-TAF: